sensor_id;sensor_type;location;lat;lon;timestamp;P1;durP1;ratioP1;P2;durP2;ratioP2
55545;SDS011;44768;50.298;127.520;2023-02-28T00:00:45;4.80;;;2.15;;
55545;SDS011;44768;50.298;127.520;2023-02-28T00:05:47;7.43;;;1.90;;
55545;SDS011;44768;50.298;127.520;2023-02-28T00:10:48;6.68;;;1.88;;
55545;SDS011;44768;50.298;127.520;2023-02-28T00:15:58;7.00;;;2.58;;
55545;SDS011;44768;50.298;127.520;2023-02-28T00:20:59;6.55;;;1.95;;
55545;SDS011;44768;50.298;127.520;2023-02-28T00:26:01;5.90;;;2.25;;
55545;SDS011;44768;50.298;127.520;2023-02-28T00:31:02;10.90;;;2.03;;
55545;SDS011;44768;50.298;127.520;2023-02-28T00:36:07;3.70;;;1.85;;
55545;SDS011;44768;50.298;127.520;2023-02-28T00:41:09;18.15;;;2.30;;
55545;SDS011;44768;50.298;127.520;2023-02-28T00:46:11;6.22;;;2.00;;
55545;SDS011;44768;50.298;127.520;2023-02-28T00:51:14;8.05;;;2.30;;
55545;SDS011;44768;50.298;127.520;2023-02-28T00:56:15;9.60;;;1.92;;
55545;SDS011;44768;50.298;127.520;2023-02-28T01:01:16;8.73;;;1.85;;
55545;SDS011;44768;50.298;127.520;2023-02-28T01:06:18;14.23;;;2.13;;
55545;SDS011;44768;50.298;127.520;2023-02-28T01:11:19;10.85;;;1.75;;
55545;SDS011;44768;50.298;127.520;2023-02-28T01:16:20;2.45;;;1.60;;
55545;SDS011;44768;50.298;127.520;2023-02-28T01:21:23;5.78;;;1.88;;
55545;SDS011;44768;50.298;127.520;2023-02-28T01:26:24;7.47;;;2.05;;
55545;SDS011;44768;50.298;127.520;2023-02-28T01:31:25;3.03;;;1.70;;
55545;SDS011;44768;50.298;127.520;2023-02-28T01:36:26;7.90;;;1.98;;
55545;SDS011;44768;50.298;127.520;2023-02-28T01:41:29;10.98;;;2.05;;
55545;SDS011;44768;50.298;127.520;2023-02-28T01:46:31;116.65;;;4.53;;
55545;SDS011;44768;50.298;127.520;2023-02-28T01:51:44;3.97;;;1.80;;
55545;SDS011;44768;50.298;127.520;2023-02-28T01:56:58;6.43;;;1.90;;
55545;SDS011;44768;50.298;127.520;2023-02-28T02:02:00;3.38;;;2.17;;
55545;SDS011;44768;50.298;127.520;2023-02-28T02:07:02;3.85;;;1.85;;
55545;SDS011;44768;50.298;127.520;2023-02-28T02:12:07;5.43;;;2.42;;
55545;SDS011;44768;50.298;127.520;2023-02-28T02:17:17;5.78;;;2.00;;
55545;SDS011;44768;50.298;127.520;2023-02-28T02:48:20;43.85;;;12.57;;
55545;SDS011;44768;50.298;127.520;2023-02-28T02:53:32;38.63;;;16.93;;
55545;SDS011;44768;50.298;127.520;2023-02-28T02:58:36;33.50;;;16.17;;
55545;SDS011;44768;50.298;127.520;2023-02-28T03:03:42;24.90;;;10.00;;
55545;SDS011;44768;50.298;127.520;2023-02-28T03:08:44;21.15;;;7.55;;
55545;SDS011;44768;50.298;127.520;2023-02-28T03:24:33;14.40;;;3.92;;
55545;SDS011;44768;50.298;127.520;2023-02-28T03:29:39;5.22;;;3.15;;
55545;SDS011;44768;50.298;127.520;2023-02-28T03:34:43;9.38;;;3.47;;
55545;SDS011;44768;50.298;127.520;2023-02-28T03:39:52;8.57;;;3.17;;
55545;SDS011;44768;50.298;127.520;2023-02-28T03:50:08;6.25;;;2.30;;
55545;SDS011;44768;50.298;127.520;2023-02-28T03:55:12;9.32;;;2.50;;
55545;SDS011;44768;50.298;127.520;2023-02-28T04:00:21;6.85;;;2.17;;
55545;SDS011;44768;50.298;127.520;2023-02-28T04:05:26;5.25;;;2.67;;
55545;SDS011;44768;50.298;127.520;2023-02-28T04:10:27;9.10;;;2.42;;
55545;SDS011;44768;50.298;127.520;2023-02-28T04:15:29;3.72;;;2.28;;
55545;SDS011;44768;50.298;127.520;2023-02-28T04:20:30;4.90;;;2.40;;
55545;SDS011;44768;50.298;127.520;2023-02-28T04:25:32;4.95;;;1.90;;
55545;SDS011;44768;50.298;127.520;2023-02-28T04:30:33;3.20;;;1.80;;
55545;SDS011;44768;50.298;127.520;2023-02-28T04:35:34;2.10;;;1.77;;
55545;SDS011;44768;50.298;127.520;2023-02-28T04:40:35;2.22;;;1.45;;
55545;SDS011;44768;50.298;127.520;2023-02-28T04:45:37;2.88;;;1.80;;
55545;SDS011;44768;50.298;127.520;2023-02-28T04:50:38;3.80;;;1.50;;
55545;SDS011;44768;50.298;127.520;2023-02-28T04:55:40;3.53;;;1.40;;
55545;SDS011;44768;50.298;127.520;2023-02-28T05:00:41;1.67;;;1.25;;
55545;SDS011;44768;50.298;127.520;2023-02-28T05:05:42;4.28;;;1.60;;
55545;SDS011;44768;50.298;127.520;2023-02-28T05:10:43;4.60;;;1.70;;
55545;SDS011;44768;50.298;127.520;2023-02-28T05:15:44;3.70;;;1.75;;
55545;SDS011;44768;50.298;127.520;2023-02-28T05:20:45;4.03;;;1.38;;
55545;SDS011;44768;50.298;127.520;2023-02-28T05:25:47;4.57;;;1.70;;
55545;SDS011;44768;50.298;127.520;2023-02-28T05:30:48;6.20;;;1.70;;
55545;SDS011;44768;50.298;127.520;2023-02-28T05:35:50;2.17;;;1.40;;
55545;SDS011;44768;50.298;127.520;2023-02-28T05:40:51;9.85;;;1.55;;
55545;SDS011;44768;50.298;127.520;2023-02-28T05:45:54;6.00;;;1.85;;
55545;SDS011;44768;50.298;127.520;2023-02-28T05:50:57;12.77;;;1.98;;
55545;SDS011;44768;50.298;127.520;2023-02-28T05:56:04;3.63;;;1.75;;
55545;SDS011;44768;50.298;127.520;2023-02-28T06:01:19;10.32;;;2.05;;
55545;SDS011;44768;50.298;127.520;2023-02-28T06:06:21;7.38;;;2.20;;
55545;SDS011;44768;50.298;127.520;2023-02-28T06:11:22;9.63;;;2.20;;
55545;SDS011;44768;50.298;127.520;2023-02-28T06:16:28;13.88;;;4.28;;
55545;SDS011;44768;50.298;127.520;2023-02-28T06:21:29;16.20;;;4.28;;
55545;SDS011;44768;50.298;127.520;2023-02-28T06:26:31;8.48;;;2.70;;
55545;SDS011;44768;50.298;127.520;2023-02-28T06:31:32;8.23;;;2.67;;
55545;SDS011;44768;50.298;127.520;2023-02-28T06:36:34;9.40;;;2.35;;
55545;SDS011;44768;50.298;127.520;2023-02-28T06:41:35;8.55;;;2.60;;
55545;SDS011;44768;50.298;127.520;2023-02-28T06:46:42;7.50;;;2.50;;
55545;SDS011;44768;50.298;127.520;2023-02-28T06:51:44;6.45;;;2.10;;
55545;SDS011;44768;50.298;127.520;2023-02-28T06:56:48;4.25;;;1.70;;
55545;SDS011;44768;50.298;127.520;2023-02-28T07:01:49;4.22;;;1.83;;
55545;SDS011;44768;50.298;127.520;2023-02-28T07:06:51;4.70;;;2.08;;
55545;SDS011;44768;50.298;127.520;2023-02-28T07:11:52;3.30;;;1.73;;
55545;SDS011;44768;50.298;127.520;2023-02-28T07:16:59;4.53;;;1.50;;
55545;SDS011;44768;50.298;127.520;2023-02-28T07:22:04;6.30;;;1.47;;
55545;SDS011;44768;50.298;127.520;2023-02-28T07:27:05;4.35;;;1.50;;
55545;SDS011;44768;50.298;127.520;2023-02-28T07:32:07;3.38;;;1.48;;
55545;SDS011;44768;50.298;127.520;2023-02-28T07:37:08;2.97;;;1.65;;
55545;SDS011;44768;50.298;127.520;2023-02-28T07:42:09;6.55;;;1.60;;
55545;SDS011;44768;50.298;127.520;2023-02-28T07:47:12;3.25;;;1.67;;
55545;SDS011;44768;50.298;127.520;2023-02-28T07:52:13;4.63;;;1.67;;
55545;SDS011;44768;50.298;127.520;2023-02-28T07:57:15;3.72;;;1.50;;
55545;SDS011;44768;50.298;127.520;2023-02-28T08:02:17;2.67;;;1.50;;
55545;SDS011;44768;50.298;127.520;2023-02-28T08:07:19;2.45;;;1.48;;
55545;SDS011;44768;50.298;127.520;2023-02-28T08:12:21;3.10;;;1.75;;
55545;SDS011;44768;50.298;127.520;2023-02-28T08:17:22;2.10;;;1.70;;
55545;SDS011;44768;50.298;127.520;2023-02-28T08:22:24;5.18;;;1.58;;
55545;SDS011;44768;50.298;127.520;2023-02-28T08:27:26;3.05;;;1.55;;
55545;SDS011;44768;50.298;127.520;2023-02-28T08:32:27;2.65;;;1.65;;
55545;SDS011;44768;50.298;127.520;2023-02-28T08:37:28;2.10;;;1.65;;
55545;SDS011;44768;50.298;127.520;2023-02-28T08:42:29;4.38;;;1.75;;
55545;SDS011;44768;50.298;127.520;2023-02-28T08:47:31;5.78;;;1.55;;
55545;SDS011;44768;50.298;127.520;2023-02-28T08:52:32;11.82;;;3.20;;
55545;SDS011;44768;50.298;127.520;2023-02-28T08:57:34;17.63;;;3.22;;
55545;SDS011;44768;50.298;127.520;2023-02-28T09:02:35;8.70;;;3.13;;
55545;SDS011;44768;50.298;127.520;2023-02-28T09:07:37;12.98;;;3.20;;
55545;SDS011;44768;50.298;127.520;2023-02-28T09:12:38;11.32;;;3.42;;
55545;SDS011;44768;50.298;127.520;2023-02-28T09:17:39;11.43;;;3.55;;
55545;SDS011;44768;50.298;127.520;2023-02-28T09:22:40;6.88;;;2.85;;
55545;SDS011;44768;50.298;127.520;2023-02-28T09:27:43;9.40;;;3.15;;
55545;SDS011;44768;50.298;127.520;2023-02-28T09:32:46;7.45;;;2.70;;
55545;SDS011;44768;50.298;127.520;2023-02-28T09:37:52;6.82;;;2.72;;
55545;SDS011;44768;50.298;127.520;2023-02-28T09:42:54;8.10;;;2.90;;
55545;SDS011;44768;50.298;127.520;2023-02-28T09:47:59;7.25;;;2.85;;
55545;SDS011;44768;50.298;127.520;2023-02-28T10:03:55;4.85;;;2.67;;
55545;SDS011;44768;50.298;127.520;2023-02-28T10:09:01;5.43;;;2.45;;
55545;SDS011;44768;50.298;127.520;2023-02-28T10:14:16;4.38;;;2.55;;
55545;SDS011;44768;50.298;127.520;2023-02-28T10:20:02;7.40;;;2.38;;
55545;SDS011;44768;50.298;127.520;2023-02-28T10:24:47;5.03;;;2.80;;
55545;SDS011;44768;50.298;127.520;2023-02-28T10:29:50;3.90;;;2.47;;
55545;SDS011;44768;50.298;127.520;2023-02-28T10:34:53;7.00;;;2.45;;
55545;SDS011;44768;50.298;127.520;2023-02-28T10:39:56;3.72;;;2.25;;
55545;SDS011;44768;50.298;127.520;2023-02-28T10:45:10;3.78;;;2.50;;
55545;SDS011;44768;50.298;127.520;2023-02-28T10:50:35;6.22;;;2.40;;
55545;SDS011;44768;50.298;127.520;2023-02-28T10:55:34;3.90;;;2.28;;
55545;SDS011;44768;50.298;127.520;2023-02-28T11:00:36;17.38;;;2.97;;
55545;SDS011;44768;50.298;127.520;2023-02-28T11:05:37;6.97;;;2.90;;
55545;SDS011;44768;50.298;127.520;2023-02-28T11:10:38;5.18;;;2.72;;
55545;SDS011;44768;50.298;127.520;2023-02-28T11:15:39;5.03;;;2.45;;
55545;SDS011;44768;50.298;127.520;2023-02-28T11:20:41;6.32;;;2.58;;
55545;SDS011;44768;50.298;127.520;2023-02-28T11:25:46;8.02;;;2.45;;
55545;SDS011;44768;50.298;127.520;2023-02-28T11:30:59;4.03;;;2.63;;
55545;SDS011;44768;50.298;127.520;2023-02-28T11:36:03;4.30;;;2.80;;
55545;SDS011;44768;50.298;127.520;2023-02-28T11:46:10;4.38;;;2.80;;
55545;SDS011;44768;50.298;127.520;2023-02-28T11:51:23;4.72;;;3.05;;
55545;SDS011;44768;50.298;127.520;2023-02-28T12:01:41;4.97;;;3.33;;
55545;SDS011;44768;50.298;127.520;2023-02-28T12:06:58;5.90;;;3.00;;
55545;SDS011;44768;50.298;127.520;2023-02-28T12:22:29;6.50;;;3.38;;
55545;SDS011;44768;50.298;127.520;2023-02-28T12:27:35;6.05;;;3.30;;
55545;SDS011;44768;50.298;127.520;2023-02-28T12:32:42;5.43;;;3.55;;
55545;SDS011;44768;50.298;127.520;2023-02-28T12:37:46;5.30;;;3.20;;
55545;SDS011;44768;50.298;127.520;2023-02-28T12:42:51;5.55;;;3.25;;
55545;SDS011;44768;50.298;127.520;2023-02-28T12:47:57;5.53;;;3.60;;
55545;SDS011;44768;50.298;127.520;2023-02-28T13:09:10;10.40;;;4.00;;
55545;SDS011;44768;50.298;127.520;2023-02-28T13:19:33;17.77;;;5.55;;
55545;SDS011;44768;50.298;127.520;2023-02-28T13:35:37;16.48;;;6.05;;
55545;SDS011;44768;50.298;127.520;2023-02-28T13:40:43;19.75;;;5.90;;
55545;SDS011;44768;50.298;127.520;2023-02-28T13:56:41;12.95;;;5.70;;
55545;SDS011;44768;50.298;127.520;2023-02-28T14:01:48;16.95;;;6.35;;
55545;SDS011;44768;50.298;127.520;2023-02-28T14:06:53;17.25;;;6.72;;
55545;SDS011;44768;50.298;127.520;2023-02-28T14:11:55;14.02;;;5.80;;
55545;SDS011;44768;50.298;127.520;2023-02-28T14:16:56;15.10;;;6.70;;
55545;SDS011;44768;50.298;127.520;2023-02-28T14:27:31;13.40;;;6.85;;
55545;SDS011;44768;50.298;127.520;2023-02-28T14:37:38;11.98;;;6.78;;
55545;SDS011;44768;50.298;127.520;2023-02-28T14:42:46;14.10;;;6.68;;
55545;SDS011;44768;50.298;127.520;2023-02-28T14:47:49;10.80;;;6.07;;
55545;SDS011;44768;50.298;127.520;2023-02-28T14:52:53;16.52;;;6.45;;
55545;SDS011;44768;50.298;127.520;2023-02-28T14:57:59;10.85;;;6.22;;
55545;SDS011;44768;50.298;127.520;2023-02-28T15:03:17;12.10;;;6.15;;
55545;SDS011;44768;50.298;127.520;2023-02-28T15:08:23;10.48;;;6.35;;
55545;SDS011;44768;50.298;127.520;2023-02-28T15:14:12;10.70;;;6.35;;
55545;SDS011;44768;50.298;127.520;2023-02-28T15:18:56;11.05;;;5.97;;
55545;SDS011;44768;50.298;127.520;2023-02-28T15:24:01;7.65;;;5.68;;
55545;SDS011;44768;50.298;127.520;2023-02-28T15:29:10;9.43;;;5.97;;
55545;SDS011;44768;50.298;127.520;2023-02-28T15:34:17;7.60;;;5.40;;
55545;SDS011;44768;50.298;127.520;2023-02-28T15:39:21;10.68;;;4.95;;
55545;SDS011;44768;50.298;127.520;2023-02-28T15:44:24;7.65;;;4.68;;
55545;SDS011;44768;50.298;127.520;2023-02-28T15:49:27;7.03;;;4.68;;
55545;SDS011;44768;50.298;127.520;2023-02-28T15:54:31;7.25;;;4.90;;
55545;SDS011;44768;50.298;127.520;2023-02-28T15:59:34;7.10;;;4.90;;
55545;SDS011;44768;50.298;127.520;2023-02-28T16:04:37;8.15;;;4.50;;
55545;SDS011;44768;50.298;127.520;2023-02-28T16:09:39;6.90;;;4.47;;
55545;SDS011;44768;50.298;127.520;2023-02-28T16:14:40;7.13;;;4.35;;
55545;SDS011;44768;50.298;127.520;2023-02-28T16:19:41;6.88;;;4.35;;
55545;SDS011;44768;50.298;127.520;2023-02-28T16:24:43;6.93;;;4.32;;
55545;SDS011;44768;50.298;127.520;2023-02-28T16:29:44;6.03;;;4.15;;
55545;SDS011;44768;50.298;127.520;2023-02-28T16:34:48;5.85;;;4.07;;
55545;SDS011;44768;50.298;127.520;2023-02-28T16:39:50;4.45;;;3.40;;
55545;SDS011;44768;50.298;127.520;2023-02-28T16:44:52;4.93;;;3.92;;
55545;SDS011;44768;50.298;127.520;2023-02-28T16:49:53;5.72;;;3.47;;
55545;SDS011;44768;50.298;127.520;2023-02-28T16:54:55;5.25;;;3.42;;
55545;SDS011;44768;50.298;127.520;2023-02-28T16:59:58;4.75;;;3.42;;
55545;SDS011;44768;50.298;127.520;2023-02-28T17:05:01;4.50;;;3.45;;
55545;SDS011;44768;50.298;127.520;2023-02-28T17:10:24;4.72;;;3.58;;
55545;SDS011;44768;50.298;127.520;2023-02-28T17:15:26;5.25;;;3.05;;
55545;SDS011;44768;50.298;127.520;2023-02-28T17:20:27;4.95;;;3.20;;
55545;SDS011;44768;50.298;127.520;2023-02-28T17:25:28;5.20;;;3.53;;
55545;SDS011;44768;50.298;127.520;2023-02-28T17:30:30;3.70;;;3.00;;
55545;SDS011;44768;50.298;127.520;2023-02-28T17:35:32;4.47;;;3.00;;
55545;SDS011;44768;50.298;127.520;2023-02-28T17:40:34;4.25;;;3.10;;
55545;SDS011;44768;50.298;127.520;2023-02-28T17:45:37;3.90;;;3.03;;
55545;SDS011;44768;50.298;127.520;2023-02-28T17:50:38;4.32;;;3.05;;
55545;SDS011;44768;50.298;127.520;2023-02-28T17:55:39;4.60;;;3.10;;
55545;SDS011;44768;50.298;127.520;2023-02-28T18:00:41;3.10;;;2.55;;
55545;SDS011;44768;50.298;127.520;2023-02-28T18:05:43;3.22;;;2.80;;
55545;SDS011;44768;50.298;127.520;2023-02-28T18:10:45;3.22;;;2.70;;
55545;SDS011;44768;50.298;127.520;2023-02-28T18:15:46;2.83;;;2.40;;
55545;SDS011;44768;50.298;127.520;2023-02-28T18:20:48;3.88;;;2.50;;
55545;SDS011;44768;50.298;127.520;2023-02-28T18:25:50;5.80;;;2.63;;
55545;SDS011;44768;50.298;127.520;2023-02-28T18:30:51;3.17;;;2.40;;
55545;SDS011;44768;50.298;127.520;2023-02-28T18:35:55;5.72;;;2.60;;
55545;SDS011;44768;50.298;127.520;2023-02-28T18:40:58;3.38;;;2.53;;
55545;SDS011;44768;50.298;127.520;2023-02-28T18:46:04;6.47;;;2.58;;
55545;SDS011;44768;50.298;127.520;2023-02-28T18:51:06;3.15;;;2.58;;
55545;SDS011;44768;50.298;127.520;2023-02-28T18:56:09;2.58;;;2.33;;
55545;SDS011;44768;50.298;127.520;2023-02-28T19:06:22;4.22;;;2.20;;
55545;SDS011;44768;50.298;127.520;2023-02-28T19:11:24;2.65;;;2.20;;
55545;SDS011;44768;50.298;127.520;2023-02-28T19:16:27;2.50;;;2.15;;
55545;SDS011;44768;50.298;127.520;2023-02-28T19:21:31;3.30;;;2.35;;
55545;SDS011;44768;50.298;127.520;2023-02-28T19:26:32;3.40;;;2.40;;
55545;SDS011;44768;50.298;127.520;2023-02-28T19:31:33;2.88;;;2.28;;
55545;SDS011;44768;50.298;127.520;2023-02-28T19:36:34;3.00;;;2.30;;
55545;SDS011;44768;50.298;127.520;2023-02-28T19:41:36;2.50;;;2.30;;
55545;SDS011;44768;50.298;127.520;2023-02-28T19:46:37;3.70;;;2.15;;
55545;SDS011;44768;50.298;127.520;2023-02-28T19:51:38;3.92;;;2.05;;
55545;SDS011;44768;50.298;127.520;2023-02-28T19:56:40;2.50;;;2.10;;
55545;SDS011;44768;50.298;127.520;2023-02-28T20:01:42;2.47;;;2.20;;
55545;SDS011;44768;50.298;127.520;2023-02-28T20:06:43;1.90;;;1.70;;
55545;SDS011;44768;50.298;127.520;2023-02-28T20:11:45;2.13;;;1.63;;
55545;SDS011;44768;50.298;127.520;2023-02-28T20:16:47;3.65;;;2.05;;
55545;SDS011;44768;50.298;127.520;2023-02-28T20:21:48;4.50;;;2.03;;
55545;SDS011;44768;50.298;127.520;2023-02-28T20:26:49;2.00;;;1.80;;
55545;SDS011;44768;50.298;127.520;2023-02-28T20:31:52;2.75;;;2.15;;
55545;SDS011;44768;50.298;127.520;2023-02-28T20:36:53;4.55;;;1.90;;
55545;SDS011;44768;50.298;127.520;2023-02-28T20:41:56;5.03;;;1.90;;
55545;SDS011;44768;50.298;127.520;2023-02-28T20:46:58;5.20;;;2.00;;
55545;SDS011;44768;50.298;127.520;2023-02-28T20:52:00;2.55;;;2.22;;
55545;SDS011;44768;50.298;127.520;2023-02-28T20:57:03;2.88;;;1.95;;
55545;SDS011;44768;50.298;127.520;2023-02-28T21:02:08;3.78;;;1.75;;
55545;SDS011;44768;50.298;127.520;2023-02-28T21:07:11;5.28;;;1.92;;
55545;SDS011;44768;50.298;127.520;2023-02-28T21:12:13;3.63;;;1.70;;
55545;SDS011;44768;50.298;127.520;2023-02-28T21:17:15;2.15;;;1.95;;
55545;SDS011;44768;50.298;127.520;2023-02-28T21:22:16;5.93;;;2.10;;
55545;SDS011;44768;50.298;127.520;2023-02-28T21:27:17;1.92;;;1.70;;
55545;SDS011;44768;50.298;127.520;2023-02-28T21:32:18;2.40;;;1.90;;
55545;SDS011;44768;50.298;127.520;2023-02-28T21:37:19;4.82;;;1.52;;
55545;SDS011;44768;50.298;127.520;2023-02-28T21:42:21;3.90;;;2.42;;
55545;SDS011;44768;50.298;127.520;2023-02-28T21:47:22;3.35;;;2.70;;
55545;SDS011;44768;50.298;127.520;2023-02-28T21:52:24;6.30;;;2.00;;
55545;SDS011;44768;50.298;127.520;2023-02-28T21:57:25;3.85;;;2.30;;
55545;SDS011;44768;50.298;127.520;2023-02-28T22:02:27;4.00;;;2.28;;
55545;SDS011;44768;50.298;127.520;2023-02-28T22:07:28;5.30;;;2.00;;
55545;SDS011;44768;50.298;127.520;2023-02-28T22:12:30;3.70;;;1.80;;
55545;SDS011;44768;50.298;127.520;2023-02-28T22:17:32;7.13;;;2.20;;
55545;SDS011;44768;50.298;127.520;2023-02-28T22:22:33;7.75;;;2.20;;
55545;SDS011;44768;50.298;127.520;2023-02-28T22:27:34;6.03;;;2.08;;
55545;SDS011;44768;50.298;127.520;2023-02-28T22:32:35;6.47;;;2.90;;
55545;SDS011;44768;50.298;127.520;2023-02-28T22:37:37;6.80;;;3.13;;
55545;SDS011;44768;50.298;127.520;2023-02-28T22:42:38;12.63;;;3.70;;
55545;SDS011;44768;50.298;127.520;2023-02-28T22:47:39;15.88;;;3.70;;
55545;SDS011;44768;50.298;127.520;2023-02-28T22:52:40;8.10;;;3.40;;
55545;SDS011;44768;50.298;127.520;2023-02-28T22:57:42;10.23;;;3.83;;
55545;SDS011;44768;50.298;127.520;2023-02-28T23:02:44;15.85;;;3.65;;
55545;SDS011;44768;50.298;127.520;2023-02-28T23:07:46;7.00;;;2.90;;
55545;SDS011;44768;50.298;127.520;2023-02-28T23:12:48;14.70;;;3.60;;
55545;SDS011;44768;50.298;127.520;2023-02-28T23:17:53;13.15;;;3.35;;
55545;SDS011;44768;50.298;127.520;2023-02-28T23:22:54;10.23;;;3.30;;
55545;SDS011;44768;50.298;127.520;2023-02-28T23:27:56;10.82;;;2.97;;
55545;SDS011;44768;50.298;127.520;2023-02-28T23:33:00;6.50;;;3.22;;
55545;SDS011;44768;50.298;127.520;2023-02-28T23:38:01;13.02;;;3.20;;
55545;SDS011;44768;50.298;127.520;2023-02-28T23:43:03;8.38;;;3.35;;
55545;SDS011;44768;50.298;127.520;2023-02-28T23:48:04;7.40;;;3.60;;
55545;SDS011;44768;50.298;127.520;2023-02-28T23:53:05;5.90;;;3.50;;
55545;SDS011;44768;50.298;127.520;2023-02-28T23:58:07;5.75;;;3.30;;
